Flight Number: EUR1419 Duration: 5:00
Departure: Cairo Int'll Airport (HECA) at 08:00 Distance: 1891 Nm
Arrival: Gatwick Airport (EGKK) at 13:00 Equipment: B757-200

Weather Information
Cairo Airport, Egypt (HECA) 30-08N 031-24E 74M Feb 24, 2018 - 01:00 AM EST / 2018.02.24 0600 UTC
Wind: from the E (080 degrees) at 6 MPH (5 KT):0
Visibility: 3 mile(s):0 Temperature: 57 F (14 C) Dew Point: 51 F (11 C) Relative Humidity: 82% Pressure (altimeter): 29.88 in. Hg (1012 hPa)
ob: HECA 240600Z 08005KT 6000 NSC 14/11 Q1012 NOSIG cycle: 6
Sunrise: 04:27 Sunset: 15:47 (UTC)

London / Gatwick Airport, United Kingdom (EGKK) 51-09N 000-11W 0M Feb 24, 2018 - 12:50 AM EST / 2018.02.24 0550 UTC
Wind: from the ENE (070 degrees) at 9 MPH (8 KT):0
Visibility: greater than 7 mile(s):0 Temperature: 26 F (-3 C)
Windchill: 17 F (-8 C):1 Dew Point: 23 F (-5 C) Relative Humidity: 86% Pressure (altimeter): 30.09 in. Hg (1019 hPa)
ob: EGKK 240550Z 07008KT CAVOK M03/M05 Q1019 cycle: 6
Sunrise: 06:58 Sunset: 17:29 (UTC)

TAF:2018/02/24 06:19 TAF EGKK 240454Z 2406/2512 08012KT 9999 SCT030 TEMPO 2406/2410 8000 PROB30 TEMPO 2412/2421 09015G25KT

Previous Pireps for this route
Date Aircraft Flight time Fuel used Landing rate On time
2012-08-18B7775.00820000No
2012-08-27B77704.4361634-679No
2012-09-08B77704.3656427-466No
2012-09-10B7774.30800000No
2013-10-04A32105.1418463-423Charter
2013-12-05B73705.2440782-364Charter
2014-01-20B757-20004.5732595-334No
2014-02-16B77704.4754139-282Yes
2014-04-13B757-20005.5239730-288No
2014-05-22B757-20004.4132526-130Yes
2014-07-19B757-20004.4143942-782Yes
2014-07-21B757-20004.2929935-165Yes
2014-08-07B77704.3452656-152Yes
2014-08-21B757-20004.5135056-241No
2014-09-19B757-20004.4131107-191Yes
2014-10-06B757-20004.2929747-430Yes
2014-10-14B7774.15882090Yes
2014-12-19B757-20004.5331409-185Yes
2015-02-18B757-2005.0242164-610No
2015-04-19B757-20004.5130532-161Yes
2015-05-04B757-20005.0442854-6Charter
2015-12-29B757-20004.3928400-188Yes
2016-02-13B77704.4062643-263Yes
2016-07-26B7774.252156500Yes
2016-08-29B77704.3971901-413Charter
2017-06-04B74700Charter
2017-06-04B74700Charter
2017-06-07B74704.16990760Charter
2017-06-11B74704.2010051150Charter
(pireps marked green are flown by you)

Route map